sensor_id;sensor_type;location;lat;lon;timestamp;temperature;humidity
78438;SHT31;67736;51.978;5.656;2024-01-30T00:00:41;11.0;69.2
78438;SHT31;67736;51.978;5.656;2024-01-30T00:03:11;11.0;69.2
78438;SHT31;67736;51.978;5.656;2024-01-30T00:05:40;11.0;69.2
78438;SHT31;67736;51.978;5.656;2024-01-30T00:08:10;11.0;69.3
78438;SHT31;67736;51.978;5.656;2024-01-30T00:10:40;10.9;69.3
78438;SHT31;67736;51.978;5.656;2024-01-30T00:13:09;10.9;69.5
78438;SHT31;67736;51.978;5.656;2024-01-30T00:15:39;10.9;69.6
78438;SHT31;67736;51.978;5.656;2024-01-30T00:18:09;10.9;69.5
78438;SHT31;67736;51.978;5.656;2024-01-30T00:20:38;10.9;69.4
78438;SHT31;67736;51.978;5.656;2024-01-30T00:23:08;10.8;69.4
78438;SHT31;67736;51.978;5.656;2024-01-30T00:25:37;10.8;69.5
78438;SHT31;67736;51.978;5.656;2024-01-30T00:28:07;10.8;69.4
78438;SHT31;67736;51.978;5.656;2024-01-30T00:30:36;10.8;69.4
78438;SHT31;67736;51.978;5.656;2024-01-30T00:33:06;10.8;69.4
78438;SHT31;67736;51.978;5.656;2024-01-30T00:35:36;10.8;69.3
78438;SHT31;67736;51.978;5.656;2024-01-30T00:38:05;10.8;69.4
78438;SHT31;67736;51.978;5.656;2024-01-30T00:40:35;10.7;69.3
78438;SHT31;67736;51.978;5.656;2024-01-30T00:43:05;10.7;69.3
78438;SHT31;67736;51.978;5.656;2024-01-30T00:45:35;10.7;69.1
78438;SHT31;67736;51.978;5.656;2024-01-30T00:48:04;10.7;69.2
78438;SHT31;67736;51.978;5.656;2024-01-30T00:50:36;10.7;69.2
78438;SHT31;67736;51.978;5.656;2024-01-30T00:53:05;10.7;69.2
78438;SHT31;67736;51.978;5.656;2024-01-30T00:55:35;10.7;69.2
78438;SHT31;67736;51.978;5.656;2024-01-30T00:58:05;10.6;69.3
78438;SHT31;67736;51.978;5.656;2024-01-30T01:00:34;10.6;69.3
78438;SHT31;67736;51.978;5.656;2024-01-30T01:03:04;10.6;69.5
78438;SHT31;67736;51.978;5.656;2024-01-30T01:05:34;10.5;69.5
78438;SHT31;67736;51.978;5.656;2024-01-30T01:08:04;10.5;69.8
78438;SHT31;67736;51.978;5.656;2024-01-30T01:10:34;10.5;69.8
78438;SHT31;67736;51.978;5.656;2024-01-30T01:13:03;10.4;69.9
78438;SHT31;67736;51.978;5.656;2024-01-30T01:15:33;10.4;70.0
78438;SHT31;67736;51.978;5.656;2024-01-30T01:18:02;10.4;70.0
78438;SHT31;67736;51.978;5.656;2024-01-30T01:20:32;10.4;70.1
78438;SHT31;67736;51.978;5.656;2024-01-30T01:23:03;10.4;70.1
78438;SHT31;67736;51.978;5.656;2024-01-30T01:25:32;10.4;70.0
78438;SHT31;67736;51.978;5.656;2024-01-30T01:28:02;10.3;70.0
78438;SHT31;67736;51.978;5.656;2024-01-30T01:30:32;10.3;70.0
78438;SHT31;67736;51.978;5.656;2024-01-30T01:33:02;10.3;70.0
78438;SHT31;67736;51.978;5.656;2024-01-30T01:35:31;10.3;70.0
78438;SHT31;67736;51.978;5.656;2024-01-30T01:38:01;10.3;70.0
78438;SHT31;67736;51.978;5.656;2024-01-30T01:40:31;10.3;70.0
78438;SHT31;67736;51.978;5.656;2024-01-30T01:43:03;10.2;69.9
78438;SHT31;67736;51.978;5.656;2024-01-30T01:45:32;10.2;70.1
78438;SHT31;67736;51.978;5.656;2024-01-30T01:48:02;10.2;70.1
78438;SHT31;67736;51.978;5.656;2024-01-30T01:50:32;10.2;70.1
78438;SHT31;67736;51.978;5.656;2024-01-30T01:53:03;10.1;70.2
78438;SHT31;67736;51.978;5.656;2024-01-30T01:55:34;10.1;70.3
78438;SHT31;67736;51.978;5.656;2024-01-30T01:58:05;10.1;70.3
78438;SHT31;67736;51.978;5.656;2024-01-30T02:00:36;10.1;70.3
78438;SHT31;67736;51.978;5.656;2024-01-30T02:03:10;10.1;70.3
78438;SHT31;67736;51.978;5.656;2024-01-30T02:05:41;10.1;70.3
78438;SHT31;67736;51.978;5.656;2024-01-30T02:08:13;10.1;70.2
78438;SHT31;67736;51.978;5.656;2024-01-30T02:10:43;10.1;70.2
78438;SHT31;67736;51.978;5.656;2024-01-30T02:13:13;10.0;70.2
78438;SHT31;67736;51.978;5.656;2024-01-30T02:15:42;10.0;70.1
78438;SHT31;67736;51.978;5.656;2024-01-30T02:18:12;10.0;70.1
78438;SHT31;67736;51.978;5.656;2024-01-30T02:20:42;10.0;70.1
78438;SHT31;67736;51.978;5.656;2024-01-30T02:23:12;10.0;70.0
78438;SHT31;67736;51.978;5.656;2024-01-30T02:25:43;10.0;70.1
78438;SHT31;67736;51.978;5.656;2024-01-30T02:28:14;10.0;70.1
78438;SHT31;67736;51.978;5.656;2024-01-30T02:30:45;10.0;70.1
78438;SHT31;67736;51.978;5.656;2024-01-30T02:33:15;9.9;70.0
78438;SHT31;67736;51.978;5.656;2024-01-30T02:35:44;9.9;69.9
78438;SHT31;67736;51.978;5.656;2024-01-30T02:38:15;9.9;70.0
78438;SHT31;67736;51.978;5.656;2024-01-30T02:40:45;9.9;70.1
78438;SHT31;67736;51.978;5.656;2024-01-30T02:43:16;9.9;70.1
78438;SHT31;67736;51.978;5.656;2024-01-30T02:45:46;9.9;70.2
78438;SHT31;67736;51.978;5.656;2024-01-30T02:48:15;9.9;70.2
78438;SHT31;67736;51.978;5.656;2024-01-30T02:50:45;9.9;70.2
78438;SHT31;67736;51.978;5.656;2024-01-30T02:53:15;9.9;70.1
78438;SHT31;67736;51.978;5.656;2024-01-30T02:55:44;9.9;70.1
78438;SHT31;67736;51.978;5.656;2024-01-30T02:58:14;9.9;70.1
78438;SHT31;67736;51.978;5.656;2024-01-30T03:00:43;9.9;70.1
78438;SHT31;67736;51.978;5.656;2024-01-30T03:03:13;9.9;70.1
78438;SHT31;67736;51.978;5.656;2024-01-30T03:05:42;9.9;70.1
78438;SHT31;67736;51.978;5.656;2024-01-30T03:08:14;9.9;70.1
78438;SHT31;67736;51.978;5.656;2024-01-30T03:10:43;9.9;70.1
78438;SHT31;67736;51.978;5.656;2024-01-30T03:13:13;9.9;70.1
78438;SHT31;67736;51.978;5.656;2024-01-30T03:15:42;9.9;70.1
78438;SHT31;67736;51.978;5.656;2024-01-30T03:18:12;9.9;70.1
78438;SHT31;67736;51.978;5.656;2024-01-30T03:20:41;9.9;70.1
78438;SHT31;67736;51.978;5.656;2024-01-30T03:23:11;9.9;70.1
78438;SHT31;67736;51.978;5.656;2024-01-30T03:25:40;9.9;70.1
78438;SHT31;67736;51.978;5.656;2024-01-30T03:28:10;9.9;70.2
78438;SHT31;67736;51.978;5.656;2024-01-30T03:30:39;9.9;70.1
78438;SHT31;67736;51.978;5.656;2024-01-30T03:33:09;9.9;70.1
78438;SHT31;67736;51.978;5.656;2024-01-30T03:35:38;9.9;70.0
78438;SHT31;67736;51.978;5.656;2024-01-30T03:38:08;9.9;70.0
78438;SHT31;67736;51.978;5.656;2024-01-30T03:40:37;9.9;69.9
78438;SHT31;67736;51.978;5.656;2024-01-30T03:43:07;9.9;69.9
78438;SHT31;67736;51.978;5.656;2024-01-30T03:45:37;9.9;69.9
78438;SHT31;67736;51.978;5.656;2024-01-30T03:48:07;9.9;69.9
78438;SHT31;67736;51.978;5.656;2024-01-30T03:50:36;9.9;70.0
78438;SHT31;67736;51.978;5.656;2024-01-30T03:53:06;9.9;69.9
78438;SHT31;67736;51.978;5.656;2024-01-30T03:55:36;9.9;69.9
78438;SHT31;67736;51.978;5.656;2024-01-30T03:58:05;9.9;69.9
78438;SHT31;67736;51.978;5.656;2024-01-30T04:00:35;9.9;69.9
78438;SHT31;67736;51.978;5.656;2024-01-30T04:03:05;9.9;69.8
78438;SHT31;67736;51.978;5.656;2024-01-30T04:05:34;10.0;69.8
78438;SHT31;67736;51.978;5.656;2024-01-30T04:08:04;10.0;69.7
78438;SHT31;67736;51.978;5.656;2024-01-30T04:10:34;10.0;69.7
78438;SHT31;67736;51.978;5.656;2024-01-30T04:13:03;10.0;69.7
78438;SHT31;67736;51.978;5.656;2024-01-30T04:15:33;10.0;69.7
78438;SHT31;67736;51.978;5.656;2024-01-30T04:18:02;9.9;69.7
78438;SHT31;67736;51.978;5.656;2024-01-30T04:20:32;9.9;69.8
78438;SHT31;67736;51.978;5.656;2024-01-30T04:23:01;9.9;69.8
78438;SHT31;67736;51.978;5.656;2024-01-30T04:25:31;9.9;69.8
78438;SHT31;67736;51.978;5.656;2024-01-30T04:28:01;9.9;69.8
78438;SHT31;67736;51.978;5.656;2024-01-30T04:30:30;9.9;69.8
78438;SHT31;67736;51.978;5.656;2024-01-30T04:33:00;10.0;69.8
78438;SHT31;67736;51.978;5.656;2024-01-30T04:35:31;10.0;69.9
78438;SHT31;67736;51.978;5.656;2024-01-30T04:38:01;10.0;69.9
78438;SHT31;67736;51.978;5.656;2024-01-30T04:40:31;10.0;69.9
78438;SHT31;67736;51.978;5.656;2024-01-30T04:43:01;10.0;69.9
78438;SHT31;67736;51.978;5.656;2024-01-30T04:45:30;10.0;69.9
78438;SHT31;67736;51.978;5.656;2024-01-30T04:48:02;10.0;70.0
78438;SHT31;67736;51.978;5.656;2024-01-30T04:50:31;10.0;70.0
78438;SHT31;67736;51.978;5.656;2024-01-30T04:53:01;10.0;70.0
78438;SHT31;67736;51.978;5.656;2024-01-30T04:55:30;10.0;70.0
78438;SHT31;67736;51.978;5.656;2024-01-30T04:58:00;10.0;70.0
78438;SHT31;67736;51.978;5.656;2024-01-30T05:00:29;10.0;70.0
78438;SHT31;67736;51.978;5.656;2024-01-30T05:03:01;10.0;70.1
78438;SHT31;67736;51.978;5.656;2024-01-30T05:05:30;10.1;70.1
78438;SHT31;67736;51.978;5.656;2024-01-30T05:08:00;10.1;70.0
78438;SHT31;67736;51.978;5.656;2024-01-30T05:10:31;10.1;70.0
78438;SHT31;67736;51.978;5.656;2024-01-30T05:13:01;10.1;70.1
78438;SHT31;67736;51.978;5.656;2024-01-30T05:15:31;10.1;70.0
78438;SHT31;67736;51.978;5.656;2024-01-30T05:18:01;10.1;69.9
78438;SHT31;67736;51.978;5.656;2024-01-30T05:20:31;10.1;70.0
78438;SHT31;67736;51.978;5.656;2024-01-30T05:23:02;10.1;70.0
78438;SHT31;67736;51.978;5.656;2024-01-30T05:25:31;10.1;70.0
78438;SHT31;67736;51.978;5.656;2024-01-30T05:28:01;10.2;70.0
78438;SHT31;67736;51.978;5.656;2024-01-30T05:30:31;10.2;70.0
78438;SHT31;67736;51.978;5.656;2024-01-30T05:33:01;10.2;69.9
78438;SHT31;67736;51.978;5.656;2024-01-30T05:35:30;10.2;69.9
78438;SHT31;67736;51.978;5.656;2024-01-30T05:37:59;10.2;69.9
78438;SHT31;67736;51.978;5.656;2024-01-30T05:40:29;10.2;69.9
78438;SHT31;67736;51.978;5.656;2024-01-30T05:43:00;10.3;69.9
78438;SHT31;67736;51.978;5.656;2024-01-30T05:45:30;10.3;69.9
78438;SHT31;67736;51.978;5.656;2024-01-30T05:47:59;10.3;69.9
78438;SHT31;67736;51.978;5.656;2024-01-30T05:50:29;10.3;70.0
78438;SHT31;67736;51.978;5.656;2024-01-30T05:52:59;10.3;70.0
78438;SHT31;67736;51.978;5.656;2024-01-30T05:55:28;10.3;70.1
78438;SHT31;67736;51.978;5.656;2024-01-30T05:57:58;10.3;70.2
78438;SHT31;67736;51.978;5.656;2024-01-30T06:00:27;10.3;70.2
78438;SHT31;67736;51.978;5.656;2024-01-30T06:02:57;10.3;70.2
78438;SHT31;67736;51.978;5.656;2024-01-30T06:05:26;10.3;70.2
78438;SHT31;67736;51.978;5.656;2024-01-30T06:07:56;10.4;70.2
78438;SHT31;67736;51.978;5.656;2024-01-30T06:10:25;10.4;70.2
78438;SHT31;67736;51.978;5.656;2024-01-30T06:12:55;10.4;70.3
78438;SHT31;67736;51.978;5.656;2024-01-30T06:15:24;10.4;70.4
78438;SHT31;67736;51.978;5.656;2024-01-30T06:17:54;10.4;70.4
78438;SHT31;67736;51.978;5.656;2024-01-30T06:20:24;10.4;70.4
78438;SHT31;67736;51.978;5.656;2024-01-30T06:22:53;10.4;70.3
78438;SHT31;67736;51.978;5.656;2024-01-30T06:25:23;10.5;70.2
78438;SHT31;67736;51.978;5.656;2024-01-30T06:27:53;10.5;70.2
78438;SHT31;67736;51.978;5.656;2024-01-30T06:30:22;10.5;70.1
78438;SHT31;67736;51.978;5.656;2024-01-30T06:32:52;10.6;70.0
78438;SHT31;67736;51.978;5.656;2024-01-30T06:35:22;10.6;69.9
78438;SHT31;67736;51.978;5.656;2024-01-30T06:37:51;10.6;69.8
78438;SHT31;67736;51.978;5.656;2024-01-30T06:40:20;10.6;69.8
78438;SHT31;67736;51.978;5.656;2024-01-30T06:42:50;10.6;69.7
78438;SHT31;67736;51.978;5.656;2024-01-30T06:45:20;10.7;69.8
78438;SHT31;67736;51.978;5.656;2024-01-30T06:47:49;10.7;69.7
78438;SHT31;67736;51.978;5.656;2024-01-30T06:50:19;10.7;69.7
78438;SHT31;67736;51.978;5.656;2024-01-30T06:52:48;10.7;69.7
78438;SHT31;67736;51.978;5.656;2024-01-30T06:55:18;10.7;69.6
78438;SHT31;67736;51.978;5.656;2024-01-30T06:57:47;10.8;69.6
78438;SHT31;67736;51.978;5.656;2024-01-30T07:00:18;10.8;69.4
78438;SHT31;67736;51.978;5.656;2024-01-30T07:02:50;10.8;69.4
78438;SHT31;67736;51.978;5.656;2024-01-30T07:05:19;10.8;69.3
78438;SHT31;67736;51.978;5.656;2024-01-30T07:07:49;10.9;69.3
78438;SHT31;67736;51.978;5.656;2024-01-30T07:10:19;10.9;69.2
78438;SHT31;67736;51.978;5.656;2024-01-30T07:12:48;10.9;69.2
78438;SHT31;67736;51.978;5.656;2024-01-30T07:15:18;10.9;69.2
78438;SHT31;67736;51.978;5.656;2024-01-30T07:17:48;10.9;69.2
78438;SHT31;67736;51.978;5.656;2024-01-30T07:20:17;10.9;69.2
78438;SHT31;67736;51.978;5.656;2024-01-30T07:22:48;10.9;69.2
78438;SHT31;67736;51.978;5.656;2024-01-30T07:25:18;10.9;69.3
78438;SHT31;67736;51.978;5.656;2024-01-30T07:27:49;10.9;69.3
78438;SHT31;67736;51.978;5.656;2024-01-30T07:30:18;10.9;69.4
78438;SHT31;67736;51.978;5.656;2024-01-30T07:32:48;10.9;69.4
78438;SHT31;67736;51.978;5.656;2024-01-30T07:35:20;10.9;69.5
78438;SHT31;67736;51.978;5.656;2024-01-30T07:37:49;10.9;69.6
78438;SHT31;67736;51.978;5.656;2024-01-30T07:40:19;11.0;69.6
78438;SHT31;67736;51.978;5.656;2024-01-30T07:42:49;11.0;69.6
78438;SHT31;67736;51.978;5.656;2024-01-30T07:45:18;11.0;69.7
78438;SHT31;67736;51.978;5.656;2024-01-30T07:47:50;11.0;69.7
78438;SHT31;67736;51.978;5.656;2024-01-30T07:50:20;11.0;69.8
78438;SHT31;67736;51.978;5.656;2024-01-30T07:52:49;11.0;70.0
78438;SHT31;67736;51.978;5.656;2024-01-30T07:55:22;11.0;70.1
78438;SHT31;67736;51.978;5.656;2024-01-30T07:57:55;11.0;70.2
78438;SHT31;67736;51.978;5.656;2024-01-30T08:00:24;11.0;70.4
78438;SHT31;67736;51.978;5.656;2024-01-30T08:02:55;11.1;70.4
78438;SHT31;67736;51.978;5.656;2024-01-30T08:05:26;11.1;70.4
78438;SHT31;67736;51.978;5.656;2024-01-30T08:07:55;11.1;70.5
78438;SHT31;67736;51.978;5.656;2024-01-30T08:10:25;11.1;70.5
78438;SHT31;67736;51.978;5.656;2024-01-30T08:12:54;11.1;70.5
78438;SHT31;67736;51.978;5.656;2024-01-30T08:15:26;11.1;70.6
78438;SHT31;67736;51.978;5.656;2024-01-30T08:17:56;11.2;70.7
78438;SHT31;67736;51.978;5.656;2024-01-30T08:20:26;11.2;70.7
78438;SHT31;67736;51.978;5.656;2024-01-30T08:22:56;11.2;70.9
78438;SHT31;67736;51.978;5.656;2024-01-30T08:25:25;11.3;70.9
78438;SHT31;67736;51.978;5.656;2024-01-30T08:27:55;11.3;70.9
78438;SHT31;67736;51.978;5.656;2024-01-30T08:30:25;11.3;70.9
78438;SHT31;67736;51.978;5.656;2024-01-30T08:32:55;11.4;70.8
78438;SHT31;67736;51.978;5.656;2024-01-30T08:35:24;11.4;70.8
78438;SHT31;67736;51.978;5.656;2024-01-30T08:37:54;11.5;70.7
78438;SHT31;67736;51.978;5.656;2024-01-30T08:40:24;11.5;70.7
78438;SHT31;67736;51.978;5.656;2024-01-30T08:42:56;11.5;70.7
78438;SHT31;67736;51.978;5.656;2024-01-30T08:45:25;11.6;70.6
78438;SHT31;67736;51.978;5.656;2024-01-30T08:47:55;11.6;70.6
78438;SHT31;67736;51.978;5.656;2024-01-30T08:50:25;11.7;70.5
78438;SHT31;67736;51.978;5.656;2024-01-30T08:52:54;11.7;70.4
78438;SHT31;67736;51.978;5.656;2024-01-30T08:55:24;11.8;70.4
78438;SHT31;67736;51.978;5.656;2024-01-30T08:57:54;11.8;70.3
78438;SHT31;67736;51.978;5.656;2024-01-30T09:00:23;11.8;70.3
78438;SHT31;67736;51.978;5.656;2024-01-30T09:02:53;11.9;70.2
78438;SHT31;67736;51.978;5.656;2024-01-30T09:05:22;11.9;70.2
78438;SHT31;67736;51.978;5.656;2024-01-30T09:07:52;11.9;70.2
78438;SHT31;67736;51.978;5.656;2024-01-30T09:10:22;12.0;70.2
78438;SHT31;67736;51.978;5.656;2024-01-30T09:12:51;12.0;70.2
78438;SHT31;67736;51.978;5.656;2024-01-30T09:15:21;12.1;70.2
78438;SHT31;67736;51.978;5.656;2024-01-30T09:17:51;12.1;70.2
78438;SHT31;67736;51.978;5.656;2024-01-30T09:20:21;12.1;70.0
78438;SHT31;67736;51.978;5.656;2024-01-30T09:22:50;12.2;69.9
78438;SHT31;67736;51.978;5.656;2024-01-30T09:25:20;12.2;69.8
78438;SHT31;67736;51.978;5.656;2024-01-30T09:27:49;12.2;69.8
78438;SHT31;67736;51.978;5.656;2024-01-30T09:30:19;12.3;69.7
78438;SHT31;67736;51.978;5.656;2024-01-30T09:32:49;12.3;69.6
78438;SHT31;67736;51.978;5.656;2024-01-30T09:35:18;12.3;69.6
78438;SHT31;67736;51.978;5.656;2024-01-30T09:37:48;12.4;69.7
78438;SHT31;67736;51.978;5.656;2024-01-30T09:40:19;12.4;69.6
78438;SHT31;67736;51.978;5.656;2024-01-30T09:42:50;12.4;69.6
78438;SHT31;67736;51.978;5.656;2024-01-30T09:45:24;12.5;69.6
78438;SHT31;67736;51.978;5.656;2024-01-30T09:47:55;12.5;69.6
78438;SHT31;67736;51.978;5.656;2024-01-30T09:50:26;12.6;69.7
78438;SHT31;67736;51.978;5.656;2024-01-30T09:52:59;12.6;69.7
78438;SHT31;67736;51.978;5.656;2024-01-30T09:55:29;12.6;69.7
78438;SHT31;67736;51.978;5.656;2024-01-30T09:57:59;12.7;69.6
78438;SHT31;67736;51.978;5.656;2024-01-30T10:00:30;12.7;69.5
78438;SHT31;67736;51.978;5.656;2024-01-30T10:03:00;12.8;69.4
78438;SHT31;67736;51.978;5.656;2024-01-30T10:05:31;12.8;69.4
78438;SHT31;67736;51.978;5.656;2024-01-30T10:08:06;12.8;69.3
78438;SHT31;67736;51.978;5.656;2024-01-30T10:10:37;12.9;69.3
78438;SHT31;67736;51.978;5.656;2024-01-30T10:13:06;12.9;69.3
78438;SHT31;67736;51.978;5.656;2024-01-30T10:15:37;12.9;69.2
78438;SHT31;67736;51.978;5.656;2024-01-30T10:18:08;12.9;69.3
78438;SHT31;67736;51.978;5.656;2024-01-30T10:20:38;13.0;69.3
78438;SHT31;67736;51.978;5.656;2024-01-30T10:23:07;13.0;69.3
78438;SHT31;67736;51.978;5.656;2024-01-30T10:25:38;13.0;69.2
78438;SHT31;67736;51.978;5.656;2024-01-30T10:28:07;13.1;69.1
78438;SHT31;67736;51.978;5.656;2024-01-30T10:30:38;13.1;68.9
78438;SHT31;67736;51.978;5.656;2024-01-30T10:33:08;13.1;68.7
78438;SHT31;67736;51.978;5.656;2024-01-30T10:35:37;13.2;68.5
78438;SHT31;67736;51.978;5.656;2024-01-30T10:38:10;13.2;68.3
78438;SHT31;67736;51.978;5.656;2024-01-30T10:40:43;13.2;68.1
78438;SHT31;67736;51.978;5.656;2024-01-30T10:43:15;13.3;68.1
78438;SHT31;67736;51.978;5.656;2024-01-30T10:45:49;13.3;67.7
78438;SHT31;67736;51.978;5.656;2024-01-30T10:48:30;13.4;67.6
78438;SHT31;67736;51.978;5.656;2024-01-30T10:51:06;13.4;67.4
78438;SHT31;67736;51.978;5.656;2024-01-30T10:53:37;13.4;67.4
78438;SHT31;67736;51.978;5.656;2024-01-30T10:56:10;13.4;67.5
78438;SHT31;67736;51.978;5.656;2024-01-30T10:58:41;13.5;67.5
78438;SHT31;67736;51.978;5.656;2024-01-30T11:01:13;13.5;67.4
78438;SHT31;67736;51.978;5.656;2024-01-30T11:03:43;13.6;67.2
78438;SHT31;67736;51.978;5.656;2024-01-30T11:06:14;13.6;67.3
78438;SHT31;67736;51.978;5.656;2024-01-30T11:08:46;13.7;66.9
78438;SHT31;67736;51.978;5.656;2024-01-30T11:11:17;13.7;67.1
78438;SHT31;67736;51.978;5.656;2024-01-30T11:13:50;13.8;66.8
78438;SHT31;67736;51.978;5.656;2024-01-30T11:16:20;13.8;66.4
78438;SHT31;67736;51.978;5.656;2024-01-30T11:18:52;13.9;66.2
78438;SHT31;67736;51.978;5.656;2024-01-30T11:21:25;13.9;66.0
78438;SHT31;67736;51.978;5.656;2024-01-30T11:23:55;13.9;65.8
78438;SHT31;67736;51.978;5.656;2024-01-30T11:26:27;14.0;65.8
78438;SHT31;67736;51.978;5.656;2024-01-30T11:28:57;14.0;65.9
78438;SHT31;67736;51.978;5.656;2024-01-30T11:31:27;14.0;65.9
78438;SHT31;67736;51.978;5.656;2024-01-30T11:33:56;14.1;66.0
78438;SHT31;67736;51.978;5.656;2024-01-30T11:36:27;14.1;65.9
78438;SHT31;67736;51.978;5.656;2024-01-30T11:38:57;14.1;65.6
78438;SHT31;67736;51.978;5.656;2024-01-30T11:41:30;14.1;65.0
78438;SHT31;67736;51.978;5.656;2024-01-30T11:43:59;14.2;64.8
78438;SHT31;67736;51.978;5.656;2024-01-30T11:46:29;14.2;64.6
78438;SHT31;67736;51.978;5.656;2024-01-30T11:48:58;14.2;64.4
78438;SHT31;67736;51.978;5.656;2024-01-30T11:51:30;14.2;64.3
78438;SHT31;67736;51.978;5.656;2024-01-30T11:54:00;14.2;64.2
78438;SHT31;67736;51.978;5.656;2024-01-30T11:56:30;14.3;64.1
78438;SHT31;67736;51.978;5.656;2024-01-30T11:59:00;14.3;64.2
78438;SHT31;67736;51.978;5.656;2024-01-30T12:01:32;14.3;64.2
78438;SHT31;67736;51.978;5.656;2024-01-30T12:04:02;14.3;63.3
78438;SHT31;67736;51.978;5.656;2024-01-30T12:06:36;14.3;62.5
78438;SHT31;67736;51.978;5.656;2024-01-30T12:09:05;14.3;62.4
78438;SHT31;67736;51.978;5.656;2024-01-30T12:11:45;14.3;62.0
78438;SHT31;67736;51.978;5.656;2024-01-30T12:14:15;14.2;61.7
78438;SHT31;67736;51.978;5.656;2024-01-30T12:16:50;14.2;61.2
78438;SHT31;67736;51.978;5.656;2024-01-30T12:19:24;14.2;61.2
78438;SHT31;67736;51.978;5.656;2024-01-30T12:21:57;14.1;61.3
78438;SHT31;67736;51.978;5.656;2024-01-30T12:24:27;14.0;61.6
78438;SHT31;67736;51.978;5.656;2024-01-30T12:26:59;14.0;61.5
78438;SHT31;67736;51.978;5.656;2024-01-30T12:29:31;13.9;61.5
78438;SHT31;67736;51.978;5.656;2024-01-30T12:32:02;13.9;60.9
78438;SHT31;67736;51.978;5.656;2024-01-30T12:34:32;13.8;60.9
78438;SHT31;67736;51.978;5.656;2024-01-30T12:37:01;13.7;60.6
78438;SHT31;67736;51.978;5.656;2024-01-30T12:39:31;13.7;60.7
78438;SHT31;67736;51.978;5.656;2024-01-30T12:42:01;13.6;60.9
78438;SHT31;67736;51.978;5.656;2024-01-30T12:44:30;13.6;60.6
78438;SHT31;67736;51.978;5.656;2024-01-30T12:47:02;13.5;61.1
78438;SHT31;67736;51.978;5.656;2024-01-30T12:49:32;13.5;61.1
78438;SHT31;67736;51.978;5.656;2024-01-30T12:52:02;13.5;61.6
78438;SHT31;67736;51.978;5.656;2024-01-30T12:54:32;13.4;61.4
78438;SHT31;67736;51.978;5.656;2024-01-30T12:57:01;13.4;61.3
78438;SHT31;67736;51.978;5.656;2024-01-30T12:59:31;13.4;61.1
78438;SHT31;67736;51.978;5.656;2024-01-30T13:02:02;13.4;60.1
78438;SHT31;67736;51.978;5.656;2024-01-30T13:04:32;13.4;60.6
78438;SHT31;67736;51.978;5.656;2024-01-30T13:07:02;13.4;61.0
78438;SHT31;67736;51.978;5.656;2024-01-30T13:09:32;13.4;60.7
78438;SHT31;67736;51.978;5.656;2024-01-30T13:12:02;13.4;59.8
78438;SHT31;67736;51.978;5.656;2024-01-30T13:14:31;13.4;59.6
78438;SHT31;67736;51.978;5.656;2024-01-30T13:17:01;13.4;59.9
78438;SHT31;67736;51.978;5.656;2024-01-30T13:19:31;13.4;60.9
78438;SHT31;67736;51.978;5.656;2024-01-30T13:22:00;13.3;61.1
78438;SHT31;67736;51.978;5.656;2024-01-30T13:24:30;13.3;61.4
78438;SHT31;67736;51.978;5.656;2024-01-30T13:26:59;13.2;61.8
78438;SHT31;67736;51.978;5.656;2024-01-30T13:29:29;13.1;61.8
78438;SHT31;67736;51.978;5.656;2024-01-30T13:31:58;13.1;61.7
78438;SHT31;67736;51.978;5.656;2024-01-30T13:34:28;13.0;61.7
78438;SHT31;67736;51.978;5.656;2024-01-30T13:36:57;13.0;61.8
78438;SHT31;67736;51.978;5.656;2024-01-30T13:39:27;12.9;61.8
78438;SHT31;67736;51.978;5.656;2024-01-30T13:41:58;12.8;61.6
78438;SHT31;67736;51.978;5.656;2024-01-30T13:44:28;12.8;61.8
78438;SHT31;67736;51.978;5.656;2024-01-30T13:46:57;12.7;61.7
78438;SHT31;67736;51.978;5.656;2024-01-30T13:49:29;12.7;62.0
78438;SHT31;67736;51.978;5.656;2024-01-30T13:51:58;12.6;62.0
78438;SHT31;67736;51.978;5.656;2024-01-30T13:54:28;12.6;62.1
78438;SHT31;67736;51.978;5.656;2024-01-30T13:56:58;12.6;62.4
78438;SHT31;67736;51.978;5.656;2024-01-30T13:59:28;12.5;62.5
78438;SHT31;67736;51.978;5.656;2024-01-30T14:01:59;12.5;62.3
78438;SHT31;67736;51.978;5.656;2024-01-30T14:04:28;12.5;62.6
78438;SHT31;67736;51.978;5.656;2024-01-30T14:07:01;12.4;62.8
78438;SHT31;67736;51.978;5.656;2024-01-30T14:09:30;12.4;63.0
78438;SHT31;67736;51.978;5.656;2024-01-30T14:12:01;12.4;63.0
78438;SHT31;67736;51.978;5.656;2024-01-30T14:14:30;12.4;62.8
78438;SHT31;67736;51.978;5.656;2024-01-30T14:17:02;12.4;62.9
78438;SHT31;67736;51.978;5.656;2024-01-30T14:19:35;12.4;62.9
78438;SHT31;67736;51.978;5.656;2024-01-30T14:22:05;12.4;63.2
78438;SHT31;67736;51.978;5.656;2024-01-30T14:24:35;12.4;63.4
78438;SHT31;67736;51.978;5.656;2024-01-30T14:27:07;12.4;63.8
78438;SHT31;67736;51.978;5.656;2024-01-30T14:29:37;12.4;63.5
78438;SHT31;67736;51.978;5.656;2024-01-30T14:32:09;12.5;63.6
78438;SHT31;67736;51.978;5.656;2024-01-30T14:34:38;12.5;63.4
78438;SHT31;67736;51.978;5.656;2024-01-30T14:37:09;12.5;63.5
78438;SHT31;67736;51.978;5.656;2024-01-30T14:39:39;12.5;63.6
78438;SHT31;67736;51.978;5.656;2024-01-30T14:42:08;12.5;63.8
78438;SHT31;67736;51.978;5.656;2024-01-30T14:44:38;12.5;64.0
78438;SHT31;67736;51.978;5.656;2024-01-30T14:47:08;12.5;64.4
78438;SHT31;67736;51.978;5.656;2024-01-30T14:49:39;12.5;64.7
78438;SHT31;67736;51.978;5.656;2024-01-30T14:52:09;12.5;64.8
78438;SHT31;67736;51.978;5.656;2024-01-30T14:54:38;12.4;64.8
78438;SHT31;67736;51.978;5.656;2024-01-30T14:57:08;12.4;64.8
78438;SHT31;67736;51.978;5.656;2024-01-30T14:59:38;12.4;64.8
78438;SHT31;67736;51.978;5.656;2024-01-30T15:02:08;12.4;64.7
78438;SHT31;67736;51.978;5.656;2024-01-30T15:04:39;12.3;64.7
78438;SHT31;67736;51.978;5.656;2024-01-30T15:07:09;12.3;64.8
78438;SHT31;67736;51.978;5.656;2024-01-30T15:09:38;12.3;64.8
78438;SHT31;67736;51.978;5.656;2024-01-30T15:12:10;12.2;64.9
78438;SHT31;67736;51.978;5.656;2024-01-30T15:14:39;12.2;65.1
78438;SHT31;67736;51.978;5.656;2024-01-30T15:17:14;12.1;65.4
78438;SHT31;67736;51.978;5.656;2024-01-30T15:19:43;12.1;65.5
78438;SHT31;67736;51.978;5.656;2024-01-30T15:22:13;12.1;65.7
78438;SHT31;67736;51.978;5.656;2024-01-30T15:24:42;12.0;65.8
78438;SHT31;67736;51.978;5.656;2024-01-30T15:27:12;12.0;66.2
78438;SHT31;67736;51.978;5.656;2024-01-30T15:29:41;12.0;66.7
78438;SHT31;67736;51.978;5.656;2024-01-30T15:32:11;11.9;67.2
78438;SHT31;67736;51.978;5.656;2024-01-30T15:34:40;11.9;67.3
78438;SHT31;67736;51.978;5.656;2024-01-30T15:37:10;11.9;67.1
78438;SHT31;67736;51.978;5.656;2024-01-30T15:39:40;11.9;67.2
78438;SHT31;67736;51.978;5.656;2024-01-30T15:42:09;11.8;67.9
78438;SHT31;67736;51.978;5.656;2024-01-30T15:44:39;11.8;68.4
78438;SHT31;67736;51.978;5.656;2024-01-30T15:47:09;11.7;68.9
78438;SHT31;67736;51.978;5.656;2024-01-30T15:49:38;11.7;68.8
78438;SHT31;67736;51.978;5.656;2024-01-30T15:52:08;11.7;69.0
78438;SHT31;67736;51.978;5.656;2024-01-30T15:54:43;11.7;69.4
78438;SHT31;67736;51.978;5.656;2024-01-30T15:57:13;11.6;69.5
78438;SHT31;67736;51.978;5.656;2024-01-30T15:59:42;11.6;69.5
78438;SHT31;67736;51.978;5.656;2024-01-30T16:02:12;11.6;69.5
78438;SHT31;67736;51.978;5.656;2024-01-30T16:04:42;11.6;69.6
78438;SHT31;67736;51.978;5.656;2024-01-30T16:07:12;11.5;69.7
78438;SHT31;67736;51.978;5.656;2024-01-30T16:09:41;11.5;69.7
78438;SHT31;67736;51.978;5.656;2024-01-30T16:12:11;11.5;70.0
78438;SHT31;67736;51.978;5.656;2024-01-30T16:14:41;11.5;70.2
78438;SHT31;67736;51.978;5.656;2024-01-30T16:17:10;11.4;70.3
78438;SHT31;67736;51.978;5.656;2024-01-30T16:19:40;11.4;70.5
78438;SHT31;67736;51.978;5.656;2024-01-30T16:22:12;11.4;70.6